sensor_id;sensor_type;location;lat;lon;timestamp;P1;durP1;ratioP1;P2;durP2;ratioP2
25581;SDS011;13462;50.764;4.332;2024-01-15T00:01:44;47.38;;;17.63;;
25581;SDS011;13462;50.764;4.332;2024-01-15T00:04:10;54.42;;;18.48;;
25581;SDS011;13462;50.764;4.332;2024-01-15T00:06:36;49.45;;;18.67;;
25581;SDS011;13462;50.764;4.332;2024-01-15T00:09:02;45.03;;;16.98;;
25581;SDS011;13462;50.764;4.332;2024-01-15T00:11:27;49.45;;;17.75;;
25581;SDS011;13462;50.764;4.332;2024-01-15T00:13:53;48.05;;;18.25;;
25581;SDS011;13462;50.764;4.332;2024-01-15T00:16:18;44.67;;;16.30;;
25581;SDS011;13462;50.764;4.332;2024-01-15T00:18:44;48.78;;;18.38;;
25581;SDS011;13462;50.764;4.332;2024-01-15T00:21:10;40.92;;;16.17;;
25581;SDS011;13462;50.764;4.332;2024-01-15T00:23:35;40.65;;;16.02;;
25581;SDS011;13462;50.764;4.332;2024-01-15T00:26:01;42.88;;;14.57;;
25581;SDS011;13462;50.764;4.332;2024-01-15T00:28:26;41.63;;;14.40;;
25581;SDS011;13462;50.764;4.332;2024-01-15T00:30:52;38.85;;;14.68;;
25581;SDS011;13462;50.764;4.332;2024-01-15T00:33:18;45.72;;;13.48;;
25581;SDS011;13462;50.764;4.332;2024-01-15T00:35:44;33.35;;;13.80;;
25581;SDS011;13462;50.764;4.332;2024-01-15T00:38:09;32.65;;;13.18;;
25581;SDS011;13462;50.764;4.332;2024-01-15T00:40:44;37.35;;;14.25;;
25581;SDS011;13462;50.764;4.332;2024-01-15T00:43:10;27.42;;;11.70;;
25581;SDS011;13462;50.764;4.332;2024-01-15T00:45:46;30.08;;;13.23;;
25581;SDS011;13462;50.764;4.332;2024-01-15T00:48:17;31.05;;;11.73;;
25581;SDS011;13462;50.764;4.332;2024-01-15T00:50:43;33.28;;;13.23;;
25581;SDS011;13462;50.764;4.332;2024-01-15T00:53:11;31.33;;;13.45;;
25581;SDS011;13462;50.764;4.332;2024-01-15T00:55:51;32.28;;;13.00;;
25581;SDS011;13462;50.764;4.332;2024-01-15T00:58:17;33.88;;;14.15;;
25581;SDS011;13462;50.764;4.332;2024-01-15T01:00:43;35.95;;;13.77;;
25581;SDS011;13462;50.764;4.332;2024-01-15T01:03:09;36.42;;;14.52;;
25581;SDS011;13462;50.764;4.332;2024-01-15T01:05:34;33.92;;;14.40;;
25581;SDS011;13462;50.764;4.332;2024-01-15T01:08:00;36.38;;;15.50;;
25581;SDS011;13462;50.764;4.332;2024-01-15T01:10:27;37.35;;;13.35;;
25581;SDS011;13462;50.764;4.332;2024-01-15T01:12:53;36.85;;;14.45;;
25581;SDS011;13462;50.764;4.332;2024-01-15T01:15:18;38.78;;;14.98;;
25581;SDS011;13462;50.764;4.332;2024-01-15T01:17:44;36.78;;;13.73;;
25581;SDS011;13462;50.764;4.332;2024-01-15T01:20:11;37.13;;;15.43;;
25581;SDS011;13462;50.764;4.332;2024-01-15T01:22:37;37.63;;;15.20;;
25581;SDS011;13462;50.764;4.332;2024-01-15T01:25:08;37.97;;;14.00;;
25581;SDS011;13462;50.764;4.332;2024-01-15T01:27:35;31.65;;;13.57;;
25581;SDS011;13462;50.764;4.332;2024-01-15T01:30:00;30.02;;;12.10;;
25581;SDS011;13462;50.764;4.332;2024-01-15T01:32:30;29.52;;;13.30;;
25581;SDS011;13462;50.764;4.332;2024-01-15T01:34:56;31.27;;;12.68;;
25581;SDS011;13462;50.764;4.332;2024-01-15T01:37:22;35.47;;;13.40;;
25581;SDS011;13462;50.764;4.332;2024-01-15T01:39:50;32.00;;;13.25;;
25581;SDS011;13462;50.764;4.332;2024-01-15T01:42:16;29.92;;;12.77;;
25581;SDS011;13462;50.764;4.332;2024-01-15T01:44:41;33.83;;;13.05;;
25581;SDS011;13462;50.764;4.332;2024-01-15T01:47:07;33.95;;;13.23;;
25581;SDS011;13462;50.764;4.332;2024-01-15T01:49:33;26.40;;;11.05;;
25581;SDS011;13462;50.764;4.332;2024-01-15T01:52:01;29.50;;;11.43;;
25581;SDS011;13462;50.764;4.332;2024-01-15T01:54:29;28.63;;;10.93;;
25581;SDS011;13462;50.764;4.332;2024-01-15T01:56:57;26.90;;;10.73;;
25581;SDS011;13462;50.764;4.332;2024-01-15T01:59:23;28.35;;;11.70;;
25581;SDS011;13462;50.764;4.332;2024-01-15T02:01:52;22.58;;;10.70;;
25581;SDS011;13462;50.764;4.332;2024-01-15T02:04:20;24.70;;;9.68;;
25581;SDS011;13462;50.764;4.332;2024-01-15T02:06:49;23.10;;;9.77;;
25581;SDS011;13462;50.764;4.332;2024-01-15T02:09:16;22.25;;;9.00;;
25581;SDS011;13462;50.764;4.332;2024-01-15T02:11:42;24.83;;;10.20;;
25581;SDS011;13462;50.764;4.332;2024-01-15T02:14:09;21.10;;;9.35;;
25581;SDS011;13462;50.764;4.332;2024-01-15T02:16:34;21.80;;;9.15;;
25581;SDS011;13462;50.764;4.332;2024-01-15T02:19:00;20.02;;;9.13;;
25581;SDS011;13462;50.764;4.332;2024-01-15T02:21:26;22.25;;;10.32;;
25581;SDS011;13462;50.764;4.332;2024-01-15T02:23:53;27.58;;;11.65;;
25581;SDS011;13462;50.764;4.332;2024-01-15T02:26:20;29.48;;;12.30;;
25581;SDS011;13462;50.764;4.332;2024-01-15T02:28:47;28.75;;;11.50;;
25581;SDS011;13462;50.764;4.332;2024-01-15T02:31:13;32.78;;;12.65;;
25581;SDS011;13462;50.764;4.332;2024-01-15T02:33:39;35.92;;;14.65;;
25581;SDS011;13462;50.764;4.332;2024-01-15T02:36:05;33.05;;;14.50;;
25581;SDS011;13462;50.764;4.332;2024-01-15T02:38:31;35.05;;;13.65;;
25581;SDS011;13462;50.764;4.332;2024-01-15T02:40:57;32.80;;;13.52;;
25581;SDS011;13462;50.764;4.332;2024-01-15T02:43:22;32.88;;;12.73;;
25581;SDS011;13462;50.764;4.332;2024-01-15T02:45:48;40.92;;;14.80;;
25581;SDS011;13462;50.764;4.332;2024-01-15T02:48:14;36.35;;;14.85;;
25581;SDS011;13462;50.764;4.332;2024-01-15T02:50:39;37.22;;;15.63;;
25581;SDS011;13462;50.764;4.332;2024-01-15T02:53:05;39.85;;;15.10;;
25581;SDS011;13462;50.764;4.332;2024-01-15T02:55:32;38.55;;;16.65;;
25581;SDS011;13462;50.764;4.332;2024-01-15T02:57:57;33.75;;;14.07;;
25581;SDS011;13462;50.764;4.332;2024-01-15T03:00:23;43.58;;;16.70;;
25581;SDS011;13462;50.764;4.332;2024-01-15T03:02:50;42.45;;;15.55;;
25581;SDS011;13462;50.764;4.332;2024-01-15T03:05:16;43.10;;;16.30;;
25581;SDS011;13462;50.764;4.332;2024-01-15T03:07:42;46.92;;;17.42;;
25581;SDS011;13462;50.764;4.332;2024-01-15T03:10:08;35.67;;;15.75;;
25581;SDS011;13462;50.764;4.332;2024-01-15T03:12:34;46.20;;;17.33;;
25581;SDS011;13462;50.764;4.332;2024-01-15T03:15:00;44.17;;;16.55;;
25581;SDS011;13462;50.764;4.332;2024-01-15T03:17:25;43.83;;;15.98;;
25581;SDS011;13462;50.764;4.332;2024-01-15T03:19:51;45.40;;;18.60;;
25581;SDS011;13462;50.764;4.332;2024-01-15T03:22:17;41.17;;;17.70;;
25581;SDS011;13462;50.764;4.332;2024-01-15T03:24:43;45.75;;;16.98;;
25581;SDS011;13462;50.764;4.332;2024-01-15T03:27:09;39.13;;;16.77;;
25581;SDS011;13462;50.764;4.332;2024-01-15T03:29:34;39.38;;;17.50;;
25581;SDS011;13462;50.764;4.332;2024-01-15T03:32:00;43.65;;;16.95;;
25581;SDS011;13462;50.764;4.332;2024-01-15T03:34:26;45.42;;;16.65;;
25581;SDS011;13462;50.764;4.332;2024-01-15T03:36:51;46.58;;;17.63;;
25581;SDS011;13462;50.764;4.332;2024-01-15T03:39:17;50.45;;;17.75;;
25581;SDS011;13462;50.764;4.332;2024-01-15T03:41:43;49.95;;;18.45;;
25581;SDS011;13462;50.764;4.332;2024-01-15T03:44:09;54.22;;;20.08;;
25581;SDS011;13462;50.764;4.332;2024-01-15T03:46:34;49.88;;;20.10;;
25581;SDS011;13462;50.764;4.332;2024-01-15T03:49:00;48.97;;;19.30;;
25581;SDS011;13462;50.764;4.332;2024-01-15T03:51:26;46.05;;;18.75;;
25581;SDS011;13462;50.764;4.332;2024-01-15T03:53:54;50.67;;;19.80;;
25581;SDS011;13462;50.764;4.332;2024-01-15T03:56:19;48.90;;;18.48;;
25581;SDS011;13462;50.764;4.332;2024-01-15T03:58:45;50.55;;;20.08;;
25581;SDS011;13462;50.764;4.332;2024-01-15T04:01:11;51.78;;;18.65;;
25581;SDS011;13462;50.764;4.332;2024-01-15T04:03:37;54.67;;;19.83;;
25581;SDS011;13462;50.764;4.332;2024-01-15T04:06:03;47.38;;;19.20;;
25581;SDS011;13462;50.764;4.332;2024-01-15T04:08:29;52.95;;;18.35;;
25581;SDS011;13462;50.764;4.332;2024-01-15T04:10:58;48.38;;;18.00;;
25581;SDS011;13462;50.764;4.332;2024-01-15T04:13:24;53.55;;;19.33;;
25581;SDS011;13462;50.764;4.332;2024-01-15T04:15:49;49.17;;;19.38;;
25581;SDS011;13462;50.764;4.332;2024-01-15T04:18:15;38.40;;;17.50;;
25581;SDS011;13462;50.764;4.332;2024-01-15T04:20:41;44.58;;;17.55;;
25581;SDS011;13462;50.764;4.332;2024-01-15T04:23:07;40.88;;;17.77;;
25581;SDS011;13462;50.764;4.332;2024-01-15T04:25:32;48.95;;;15.95;;
25581;SDS011;13462;50.764;4.332;2024-01-15T04:27:58;42.05;;;16.88;;
25581;SDS011;13462;50.764;4.332;2024-01-15T04:30:24;42.92;;;17.02;;
25581;SDS011;13462;50.764;4.332;2024-01-15T04:32:55;45.92;;;17.65;;
25581;SDS011;13462;50.764;4.332;2024-01-15T04:35:20;43.17;;;17.83;;
25581;SDS011;13462;50.764;4.332;2024-01-15T04:37:46;47.00;;;16.83;;
25581;SDS011;13462;50.764;4.332;2024-01-15T04:40:12;46.55;;;16.05;;
25581;SDS011;13462;50.764;4.332;2024-01-15T04:42:38;42.78;;;15.32;;
25581;SDS011;13462;50.764;4.332;2024-01-15T04:45:14;36.53;;;13.18;;
25581;SDS011;13462;50.764;4.332;2024-01-15T04:47:40;30.33;;;11.38;;
25581;SDS011;13462;50.764;4.332;2024-01-15T04:50:09;23.60;;;10.82;;
25581;SDS011;13462;50.764;4.332;2024-01-15T04:52:34;24.00;;;9.82;;
25581;SDS011;13462;50.764;4.332;2024-01-15T04:55:15;31.63;;;10.05;;
25581;SDS011;13462;50.764;4.332;2024-01-15T04:57:50;18.83;;;9.95;;
25581;SDS011;13462;50.764;4.332;2024-01-15T05:00:16;26.70;;;11.27;;
25581;SDS011;13462;50.764;4.332;2024-01-15T05:02:42;23.75;;;10.05;;
25581;SDS011;13462;50.764;4.332;2024-01-15T05:05:07;21.70;;;9.27;;
25581;SDS011;13462;50.764;4.332;2024-01-15T05:07:33;25.65;;;9.68;;
25581;SDS011;13462;50.764;4.332;2024-01-15T05:09:59;21.05;;;10.20;;
25581;SDS011;13462;50.764;4.332;2024-01-15T05:12:24;22.35;;;10.68;;
25581;SDS011;13462;50.764;4.332;2024-01-15T05:14:50;26.90;;;10.23;;
25581;SDS011;13462;50.764;4.332;2024-01-15T05:17:15;24.58;;;11.40;;
25581;SDS011;13462;50.764;4.332;2024-01-15T05:19:41;28.30;;;12.20;;
25581;SDS011;13462;50.764;4.332;2024-01-15T05:22:07;33.55;;;14.40;;
25581;SDS011;13462;50.764;4.332;2024-01-15T05:24:32;34.58;;;12.77;;
25581;SDS011;13462;50.764;4.332;2024-01-15T05:26:58;26.27;;;12.50;;
25581;SDS011;13462;50.764;4.332;2024-01-15T05:29:23;27.50;;;11.95;;
25581;SDS011;13462;50.764;4.332;2024-01-15T05:31:49;31.42;;;13.00;;
25581;SDS011;13462;50.764;4.332;2024-01-15T05:34:14;31.90;;;14.68;;
25581;SDS011;13462;50.764;4.332;2024-01-15T05:36:40;33.50;;;15.00;;
25581;SDS011;13462;50.764;4.332;2024-01-15T05:39:06;32.35;;;14.60;;
25581;SDS011;13462;50.764;4.332;2024-01-15T05:41:31;40.38;;;16.05;;
25581;SDS011;13462;50.764;4.332;2024-01-15T05:43:57;30.60;;;14.55;;
25581;SDS011;13462;50.764;4.332;2024-01-15T05:46:22;34.47;;;16.73;;
25581;SDS011;13462;50.764;4.332;2024-01-15T05:48:48;33.55;;;14.90;;
25581;SDS011;13462;50.764;4.332;2024-01-15T05:51:14;31.40;;;14.82;;
25581;SDS011;13462;50.764;4.332;2024-01-15T05:53:39;30.85;;;13.57;;
25581;SDS011;13462;50.764;4.332;2024-01-15T05:56:07;25.75;;;11.55;;
25581;SDS011;13462;50.764;4.332;2024-01-15T05:58:33;25.63;;;11.75;;
25581;SDS011;13462;50.764;4.332;2024-01-15T06:00:58;24.63;;;12.30;;
25581;SDS011;13462;50.764;4.332;2024-01-15T06:03:24;24.92;;;9.85;;
25581;SDS011;13462;50.764;4.332;2024-01-15T06:05:50;20.33;;;9.88;;
25581;SDS011;13462;50.764;4.332;2024-01-15T06:08:15;23.42;;;10.02;;
25581;SDS011;13462;50.764;4.332;2024-01-15T06:10:41;21.35;;;10.68;;
25581;SDS011;13462;50.764;4.332;2024-01-15T06:13:06;18.13;;;9.68;;
25581;SDS011;13462;50.764;4.332;2024-01-15T06:15:32;22.70;;;10.82;;
25581;SDS011;13462;50.764;4.332;2024-01-15T06:17:58;26.00;;;12.10;;
25581;SDS011;13462;50.764;4.332;2024-01-15T06:20:23;24.45;;;12.48;;
25581;SDS011;13462;50.764;4.332;2024-01-15T06:22:49;23.70;;;11.45;;
25581;SDS011;13462;50.764;4.332;2024-01-15T06:25:14;31.60;;;12.88;;
25581;SDS011;13462;50.764;4.332;2024-01-15T06:27:40;30.02;;;14.50;;
25581;SDS011;13462;50.764;4.332;2024-01-15T06:30:05;27.58;;;13.90;;
25581;SDS011;13462;50.764;4.332;2024-01-15T06:32:31;24.83;;;12.75;;
25581;SDS011;13462;50.764;4.332;2024-01-15T06:34:57;28.23;;;13.65;;
25581;SDS011;13462;50.764;4.332;2024-01-15T06:37:23;22.60;;;10.98;;
25581;SDS011;13462;50.764;4.332;2024-01-15T06:39:48;29.42;;;12.00;;
25581;SDS011;13462;50.764;4.332;2024-01-15T06:42:14;27.20;;;11.52;;
25581;SDS011;13462;50.764;4.332;2024-01-15T06:44:40;27.85;;;12.75;;
25581;SDS011;13462;50.764;4.332;2024-01-15T06:47:06;28.63;;;14.73;;
25581;SDS011;13462;50.764;4.332;2024-01-15T06:49:31;24.48;;;12.75;;
25581;SDS011;13462;50.764;4.332;2024-01-15T06:51:57;24.75;;;13.05;;
25581;SDS011;13462;50.764;4.332;2024-01-15T06:54:23;24.13;;;12.90;;
25581;SDS011;13462;50.764;4.332;2024-01-15T06:56:49;29.38;;;12.13;;
25581;SDS011;13462;50.764;4.332;2024-01-15T06:59:15;22.27;;;11.18;;
25581;SDS011;13462;50.764;4.332;2024-01-15T07:01:41;19.52;;;9.88;;
25581;SDS011;13462;50.764;4.332;2024-01-15T07:04:07;22.00;;;10.07;;
25581;SDS011;13462;50.764;4.332;2024-01-15T07:06:33;21.05;;;9.48;;
25581;SDS011;13462;50.764;4.332;2024-01-15T07:08:59;16.27;;;8.82;;
25581;SDS011;13462;50.764;4.332;2024-01-15T07:11:25;19.85;;;8.95;;
25581;SDS011;13462;50.764;4.332;2024-01-15T07:13:51;19.02;;;9.73;;
25581;SDS011;13462;50.764;4.332;2024-01-15T07:16:19;18.95;;;9.63;;
25581;SDS011;13462;50.764;4.332;2024-01-15T07:18:54;19.48;;;9.73;;
25581;SDS011;13462;50.764;4.332;2024-01-15T07:21:20;21.65;;;9.27;;
25581;SDS011;13462;50.764;4.332;2024-01-15T07:23:46;21.63;;;10.10;;
25581;SDS011;13462;50.764;4.332;2024-01-15T07:26:12;26.73;;;10.60;;
25581;SDS011;13462;50.764;4.332;2024-01-15T07:28:38;23.08;;;10.55;;
25581;SDS011;13462;50.764;4.332;2024-01-15T07:31:04;25.30;;;11.40;;
25581;SDS011;13462;50.764;4.332;2024-01-15T07:33:31;27.73;;;10.73;;
25581;SDS011;13462;50.764;4.332;2024-01-15T07:35:56;21.67;;;11.18;;
25581;SDS011;13462;50.764;4.332;2024-01-15T07:38:23;24.05;;;9.85;;
25581;SDS011;13462;50.764;4.332;2024-01-15T07:40:48;24.98;;;10.27;;
25581;SDS011;13462;50.764;4.332;2024-01-15T07:43:14;23.85;;;10.82;;
25581;SDS011;13462;50.764;4.332;2024-01-15T07:45:40;21.45;;;10.68;;
25581;SDS011;13462;50.764;4.332;2024-01-15T07:48:06;19.33;;;9.77;;
25581;SDS011;13462;50.764;4.332;2024-01-15T07:50:31;21.17;;;8.93;;
25581;SDS011;13462;50.764;4.332;2024-01-15T07:52:57;17.73;;;8.05;;
25581;SDS011;13462;50.764;4.332;2024-01-15T07:55:22;16.60;;;7.05;;
25581;SDS011;13462;50.764;4.332;2024-01-15T07:57:48;18.60;;;6.47;;
25581;SDS011;13462;50.764;4.332;2024-01-15T08:00:14;15.18;;;6.47;;
25581;SDS011;13462;50.764;4.332;2024-01-15T08:02:40;11.32;;;5.88;;
25581;SDS011;13462;50.764;4.332;2024-01-15T08:05:05;15.15;;;6.18;;
25581;SDS011;13462;50.764;4.332;2024-01-15T08:07:31;13.98;;;6.03;;
25581;SDS011;13462;50.764;4.332;2024-01-15T08:09:56;15.07;;;6.05;;
25581;SDS011;13462;50.764;4.332;2024-01-15T08:12:23;12.70;;;5.22;;
25581;SDS011;13462;50.764;4.332;2024-01-15T08:14:48;17.55;;;5.47;;
25581;SDS011;13462;50.764;4.332;2024-01-15T08:17:14;13.95;;;5.00;;
25581;SDS011;13462;50.764;4.332;2024-01-15T08:19:41;10.95;;;4.40;;
25581;SDS011;13462;50.764;4.332;2024-01-15T08:22:07;10.43;;;4.88;;
25581;SDS011;13462;50.764;4.332;2024-01-15T08:24:32;9.73;;;5.03;;
25581;SDS011;13462;50.764;4.332;2024-01-15T08:26:58;13.20;;;4.57;;
25581;SDS011;13462;50.764;4.332;2024-01-15T08:29:24;7.72;;;4.45;;
25581;SDS011;13462;50.764;4.332;2024-01-15T08:31:49;12.65;;;5.28;;
25581;SDS011;13462;50.764;4.332;2024-01-15T08:34:15;9.80;;;4.57;;
25581;SDS011;13462;50.764;4.332;2024-01-15T08:36:41;14.57;;;4.45;;
25581;SDS011;13462;50.764;4.332;2024-01-15T08:39:07;13.70;;;4.88;;
25581;SDS011;13462;50.764;4.332;2024-01-15T08:41:34;15.75;;;4.07;;
25581;SDS011;13462;50.764;4.332;2024-01-15T08:44:00;9.50;;;4.82;;
25581;SDS011;13462;50.764;4.332;2024-01-15T08:46:26;8.60;;;3.92;;
25581;SDS011;13462;50.764;4.332;2024-01-15T08:48:51;12.63;;;3.75;;
25581;SDS011;13462;50.764;4.332;2024-01-15T08:51:17;15.07;;;4.38;;
25581;SDS011;13462;50.764;4.332;2024-01-15T08:53:43;8.77;;;4.25;;
25581;SDS011;13462;50.764;4.332;2024-01-15T08:56:09;10.60;;;3.83;;
25581;SDS011;13462;50.764;4.332;2024-01-15T08:58:35;9.75;;;4.15;;
25581;SDS011;13462;50.764;4.332;2024-01-15T09:01:00;11.05;;;3.75;;
25581;SDS011;13462;50.764;4.332;2024-01-15T09:03:26;13.68;;;4.15;;
25581;SDS011;13462;50.764;4.332;2024-01-15T09:05:51;4.25;;;2.83;;
25581;SDS011;13462;50.764;4.332;2024-01-15T09:08:17;5.55;;;3.05;;
25581;SDS011;13462;50.764;4.332;2024-01-15T09:10:43;7.72;;;3.60;;
25581;SDS011;13462;50.764;4.332;2024-01-15T09:13:08;13.93;;;3.60;;
25581;SDS011;13462;50.764;4.332;2024-01-15T09:15:34;8.18;;;2.70;;
25581;SDS011;13462;50.764;4.332;2024-01-15T09:17:59;10.23;;;3.30;;
25581;SDS011;13462;50.764;4.332;2024-01-15T09:20:27;6.43;;;2.38;;
25581;SDS011;13462;50.764;4.332;2024-01-15T09:22:53;6.90;;;2.70;;
25581;SDS011;13462;50.764;4.332;2024-01-15T09:25:19;8.60;;;2.30;;
25581;SDS011;13462;50.764;4.332;2024-01-15T09:27:44;5.47;;;1.73;;
25581;SDS011;13462;50.764;4.332;2024-01-15T09:30:10;10.23;;;2.40;;
25581;SDS011;13462;50.764;4.332;2024-01-15T09:32:36;5.72;;;2.33;;
25581;SDS011;13462;50.764;4.332;2024-01-15T09:35:01;5.65;;;2.75;;
25581;SDS011;13462;50.764;4.332;2024-01-15T09:37:27;6.78;;;2.40;;
25581;SDS011;13462;50.764;4.332;2024-01-15T09:39:53;5.88;;;3.03;;
25581;SDS011;13462;50.764;4.332;2024-01-15T09:42:20;8.52;;;3.20;;
25581;SDS011;13462;50.764;4.332;2024-01-15T09:44:48;5.97;;;2.78;;
25581;SDS011;13462;50.764;4.332;2024-01-15T09:47:14;5.32;;;2.03;;
25581;SDS011;13462;50.764;4.332;2024-01-15T09:49:41;5.10;;;2.35;;
25581;SDS011;13462;50.764;4.332;2024-01-15T09:52:07;7.95;;;2.30;;
25581;SDS011;13462;50.764;4.332;2024-01-15T09:54:33;4.75;;;2.20;;
25581;SDS011;13462;50.764;4.332;2024-01-15T09:57:00;6.88;;;2.72;;
25581;SDS011;13462;50.764;4.332;2024-01-15T09:59:26;7.65;;;2.92;;
25581;SDS011;13462;50.764;4.332;2024-01-15T10:01:53;10.38;;;3.10;;
25581;SDS011;13462;50.764;4.332;2024-01-15T10:04:20;7.20;;;3.33;;
25581;SDS011;13462;50.764;4.332;2024-01-15T10:06:46;4.40;;;2.42;;
25581;SDS011;13462;50.764;4.332;2024-01-15T10:09:13;7.07;;;2.35;;
25581;SDS011;13462;50.764;4.332;2024-01-15T10:11:42;5.95;;;2.33;;
25581;SDS011;13462;50.764;4.332;2024-01-15T10:14:11;5.22;;;2.35;;
25581;SDS011;13462;50.764;4.332;2024-01-15T10:16:38;5.53;;;2.33;;
25581;SDS011;13462;50.764;4.332;2024-01-15T10:19:04;5.28;;;2.40;;
25581;SDS011;13462;50.764;4.332;2024-01-15T10:21:31;7.35;;;2.45;;
25581;SDS011;13462;50.764;4.332;2024-01-15T10:23:59;4.63;;;2.15;;
25581;SDS011;13462;50.764;4.332;2024-01-15T10:26:25;6.68;;;2.20;;
25581;SDS011;13462;50.764;4.332;2024-01-15T10:28:51;9.82;;;2.53;;
25581;SDS011;13462;50.764;4.332;2024-01-15T10:31:20;7.57;;;2.50;;
25581;SDS011;13462;50.764;4.332;2024-01-15T10:33:47;6.07;;;2.47;;
25581;SDS011;13462;50.764;4.332;2024-01-15T10:36:16;5.88;;;2.85;;
25581;SDS011;13462;50.764;4.332;2024-01-15T10:38:46;11.55;;;2.90;;
25581;SDS011;13462;50.764;4.332;2024-01-15T10:41:11;6.05;;;2.33;;
25581;SDS011;13462;50.764;4.332;2024-01-15T10:43:37;5.85;;;2.10;;
25581;SDS011;13462;50.764;4.332;2024-01-15T10:46:06;9.32;;;2.35;;
25581;SDS011;13462;50.764;4.332;2024-01-15T10:48:33;9.25;;;2.40;;
25581;SDS011;13462;50.764;4.332;2024-01-15T10:51:00;7.00;;;2.25;;
25581;SDS011;13462;50.764;4.332;2024-01-15T10:53:28;6.72;;;2.83;;
25581;SDS011;13462;50.764;4.332;2024-01-15T10:55:54;3.83;;;1.73;;
25581;SDS011;13462;50.764;4.332;2024-01-15T10:58:22;7.68;;;2.22;;
25581;SDS011;13462;50.764;4.332;2024-01-15T11:00:48;5.38;;;2.13;;
25581;SDS011;13462;50.764;4.332;2024-01-15T11:03:14;4.03;;;2.00;;
25581;SDS011;13462;50.764;4.332;2024-01-15T11:05:42;7.22;;;1.98;;
25581;SDS011;13462;50.764;4.332;2024-01-15T11:08:09;5.35;;;2.35;;
25581;SDS011;13462;50.764;4.332;2024-01-15T11:10:48;7.95;;;2.67;;
25581;SDS011;13462;50.764;4.332;2024-01-15T11:16:05;8.88;;;2.42;;
25581;SDS011;13462;50.764;4.332;2024-01-15T11:18:36;4.63;;;1.50;;
25581;SDS011;13462;50.764;4.332;2024-01-15T11:23:46;4.97;;;1.70;;
25581;SDS011;13462;50.764;4.332;2024-01-15T11:34:21;6.20;;;1.70;;
25581;SDS011;13462;50.764;4.332;2024-01-15T11:37:06;7.95;;;1.80;;
25581;SDS011;13462;50.764;4.332;2024-01-15T11:41:59;4.05;;;1.70;;
25581;SDS011;13462;50.764;4.332;2024-01-15T11:44:26;7.25;;;2.00;;
25581;SDS011;13462;50.764;4.332;2024-01-15T11:52:12;5.13;;;1.58;;
25581;SDS011;13462;50.764;4.332;2024-01-15T11:54:43;4.63;;;2.00;;
25581;SDS011;13462;50.764;4.332;2024-01-15T11:57:16;4.90;;;1.77;;
25581;SDS011;13462;50.764;4.332;2024-01-15T11:59:54;11.82;;;2.38;;
25581;SDS011;13462;50.764;4.332;2024-01-15T12:02:19;7.40;;;1.77;;
25581;SDS011;13462;50.764;4.332;2024-01-15T12:04:45;8.48;;;1.60;;
25581;SDS011;13462;50.764;4.332;2024-01-15T12:07:11;10.43;;;1.60;;
25581;SDS011;13462;50.764;4.332;2024-01-15T12:09:41;6.88;;;1.42;;
25581;SDS011;13462;50.764;4.332;2024-01-15T12:12:10;6.20;;;1.60;;
25581;SDS011;13462;50.764;4.332;2024-01-15T12:14:40;3.47;;;1.63;;
25581;SDS011;13462;50.764;4.332;2024-01-15T12:17:06;5.00;;;1.10;;
25581;SDS011;13462;50.764;4.332;2024-01-15T12:19:31;8.32;;;1.52;;
25581;SDS011;13462;50.764;4.332;2024-01-15T12:21:57;4.85;;;2.03;;
25581;SDS011;13462;50.764;4.332;2024-01-15T12:24:23;5.88;;;1.17;;
25581;SDS011;13462;50.764;4.332;2024-01-15T12:26:48;5.95;;;1.70;;
25581;SDS011;13462;50.764;4.332;2024-01-15T12:29:14;6.78;;;1.58;;
25581;SDS011;13462;50.764;4.332;2024-01-15T12:31:43;6.85;;;1.70;;
25581;SDS011;13462;50.764;4.332;2024-01-15T12:34:11;5.22;;;1.33;;
25581;SDS011;13462;50.764;4.332;2024-01-15T12:36:37;3.58;;;1.20;;
25581;SDS011;13462;50.764;4.332;2024-01-15T12:39:02;7.90;;;1.40;;
25581;SDS011;13462;50.764;4.332;2024-01-15T12:41:28;5.15;;;1.23;;
25581;SDS011;13462;50.764;4.332;2024-01-15T12:43:53;8.48;;;1.65;;
25581;SDS011;13462;50.764;4.332;2024-01-15T12:46:19;3.80;;;1.63;;
25581;SDS011;13462;50.764;4.332;2024-01-15T12:48:45;4.95;;;1.30;;
25581;SDS011;13462;50.764;4.332;2024-01-15T12:51:10;5.97;;;1.35;;
25581;SDS011;13462;50.764;4.332;2024-01-15T12:53:36;7.95;;;1.60;;
25581;SDS011;13462;50.764;4.332;2024-01-15T12:56:02;3.65;;;1.80;;
25581;SDS011;13462;50.764;4.332;2024-01-15T12:58:28;6.13;;;1.45;;
25581;SDS011;13462;50.764;4.332;2024-01-15T13:00:53;12.18;;;2.08;;
25581;SDS011;13462;50.764;4.332;2024-01-15T13:03:19;4.68;;;1.60;;
25581;SDS011;13462;50.764;4.332;2024-01-15T13:05:44;3.13;;;1.45;;
25581;SDS011;13462;50.764;4.332;2024-01-15T13:08:10;4.38;;;1.45;;
25581;SDS011;13462;50.764;4.332;2024-01-15T13:10:36;10.00;;;1.75;;
25581;SDS011;13462;50.764;4.332;2024-01-15T13:13:02;7.35;;;1.67;;
25581;SDS011;13462;50.764;4.332;2024-01-15T13:15:28;7.82;;;2.05;;
25581;SDS011;13462;50.764;4.332;2024-01-15T13:17:53;8.32;;;1.75;;
25581;SDS011;13462;50.764;4.332;2024-01-15T13:20:19;5.97;;;2.00;;
25581;SDS011;13462;50.764;4.332;2024-01-15T13:22:44;6.90;;;1.75;;
25581;SDS011;13462;50.764;4.332;2024-01-15T13:25:10;6.35;;;1.63;;
25581;SDS011;13462;50.764;4.332;2024-01-15T13:27:36;7.80;;;2.42;;
25581;SDS011;13462;50.764;4.332;2024-01-15T13:30:02;4.75;;;1.73;;
25581;SDS011;13462;50.764;4.332;2024-01-15T13:32:28;3.75;;;1.35;;
25581;SDS011;13462;50.764;4.332;2024-01-15T13:34:58;5.25;;;2.05;;
25581;SDS011;13462;50.764;4.332;2024-01-15T13:37:25;5.40;;;1.92;;
25581;SDS011;13462;50.764;4.332;2024-01-15T13:39:51;7.05;;;1.83;;
25581;SDS011;13462;50.764;4.332;2024-01-15T13:42:17;7.40;;;2.53;;
25581;SDS011;13462;50.764;4.332;2024-01-15T13:44:43;12.25;;;2.08;;
25581;SDS011;13462;50.764;4.332;2024-01-15T13:47:08;9.45;;;1.73;;
25581;SDS011;13462;50.764;4.332;2024-01-15T13:49:35;5.65;;;1.50;;
25581;SDS011;13462;50.764;4.332;2024-01-15T13:52:01;5.43;;;1.42;;
25581;SDS011;13462;50.764;4.332;2024-01-15T13:54:29;6.95;;;2.47;;
25581;SDS011;13462;50.764;4.332;2024-01-15T13:56:55;8.93;;;1.60;;
25581;SDS011;13462;50.764;4.332;2024-01-15T13:59:21;7.72;;;1.83;;
25581;SDS011;13462;50.764;4.332;2024-01-15T14:01:46;7.45;;;1.77;;
25581;SDS011;13462;50.764;4.332;2024-01-15T14:04:12;10.95;;;2.20;;
25581;SDS011;13462;50.764;4.332;2024-01-15T14:06:38;12.52;;;2.67;;
25581;SDS011;13462;50.764;4.332;2024-01-15T14:09:07;4.82;;;1.60;;
25581;SDS011;13462;50.764;4.332;2024-01-15T14:11:35;7.15;;;2.38;;
25581;SDS011;13462;50.764;4.332;2024-01-15T14:14:02;7.15;;;2.60;;
25581;SDS011;13462;50.764;4.332;2024-01-15T14:16:28;7.03;;;3.35;;
25581;SDS011;13462;50.764;4.332;2024-01-15T14:18:54;3.88;;;2.38;;
25581;SDS011;13462;50.764;4.332;2024-01-15T14:21:19;5.65;;;1.73;;
25581;SDS011;13462;50.764;4.332;2024-01-15T14:23:45;4.35;;;1.35;;
25581;SDS011;13462;50.764;4.332;2024-01-15T14:26:11;5.43;;;1.63;;
25581;SDS011;13462;50.764;4.332;2024-01-15T14:28:37;5.32;;;1.83;;
25581;SDS011;13462;50.764;4.332;2024-01-15T14:31:03;6.53;;;2.60;;
25581;SDS011;13462;50.764;4.332;2024-01-15T14:33:30;6.13;;;2.45;;
25581;SDS011;13462;50.764;4.332;2024-01-15T14:35:59;5.50;;;2.03;;
25581;SDS011;13462;50.764;4.332;2024-01-15T14:38:25;8.77;;;3.03;;
25581;SDS011;13462;50.764;4.332;2024-01-15T14:40:51;8.80;;;3.03;;
25581;SDS011;13462;50.764;4.332;2024-01-15T14:43:16;12.85;;;3.33;;
25581;SDS011;13462;50.764;4.332;2024-01-15T14:45:42;16.15;;;3.45;;
25581;SDS011;13462;50.764;4.332;2024-01-15T14:48:08;8.05;;;3.25;;
25581;SDS011;13462;50.764;4.332;2024-01-15T14:50:34;5.13;;;2.85;;